sensor_id;sensor_type;location;lat;lon;timestamp;temperature;humidity
63051;SHT30;49136;47.416;19.402;2023-07-30T00:01:57;19.09;93.47
63051;SHT30;49136;47.416;19.402;2023-07-30T00:04:22;19.13;93.07
63051;SHT30;49136;47.416;19.402;2023-07-30T00:06:48;19.15;94.46
63051;SHT30;49136;47.416;19.402;2023-07-30T00:09:14;19.12;94.31
63051;SHT30;49136;47.416;19.402;2023-07-30T00:11:39;19.09;94.32
63051;SHT30;49136;47.416;19.402;2023-07-30T00:14:05;19.13;94.30
63051;SHT30;49136;47.416;19.402;2023-07-30T00:16:30;19.19;93.88
63051;SHT30;49136;47.416;19.402;2023-07-30T00:18:56;19.20;93.56
63051;SHT30;49136;47.416;19.402;2023-07-30T00:21:22;19.20;93.53
63051;SHT30;49136;47.416;19.402;2023-07-30T00:23:47;19.22;93.50
63051;SHT30;49136;47.416;19.402;2023-07-30T00:26:13;19.24;92.84
63051;SHT30;49136;47.416;19.402;2023-07-30T00:28:38;19.33;92.87
63051;SHT30;49136;47.416;19.402;2023-07-30T00:31:03;19.35;93.00
63051;SHT30;49136;47.416;19.402;2023-07-30T00:33:30;19.40;93.35
63051;SHT30;49136;47.416;19.402;2023-07-30T00:35:56;19.37;93.90
63051;SHT30;49136;47.416;19.402;2023-07-30T00:38:21;19.30;93.82
63051;SHT30;49136;47.416;19.402;2023-07-30T00:40:47;19.28;93.69
63051;SHT30;49136;47.416;19.402;2023-07-30T00:43:12;19.30;93.85
63051;SHT30;49136;47.416;19.402;2023-07-30T00:45:40;19.27;93.85
63051;SHT30;49136;47.416;19.402;2023-07-30T00:48:06;19.26;93.96
63051;SHT30;49136;47.416;19.402;2023-07-30T00:50:33;19.27;93.97
63051;SHT30;49136;47.416;19.402;2023-07-30T00:52:59;19.28;93.75
63051;SHT30;49136;47.416;19.402;2023-07-30T00:55:24;19.30;94.41
63051;SHT30;49136;47.416;19.402;2023-07-30T00:57:50;19.27;93.94
63051;SHT30;49136;47.416;19.402;2023-07-30T01:00:16;19.22;94.20
63051;SHT30;49136;47.416;19.402;2023-07-30T01:02:42;19.15;95.01
63051;SHT30;49136;47.416;19.402;2023-07-30T01:05:08;19.09;94.97
63051;SHT30;49136;47.416;19.402;2023-07-30T01:07:33;19.03;95.10
63051;SHT30;49136;47.416;19.402;2023-07-30T01:10:00;19.02;95.28
63051;SHT30;49136;47.416;19.402;2023-07-30T01:12:26;19.03;94.64
63051;SHT30;49136;47.416;19.402;2023-07-30T01:14:54;19.03;94.96
63051;SHT30;49136;47.416;19.402;2023-07-30T01:17:21;19.06;95.65
63051;SHT30;49136;47.416;19.402;2023-07-30T01:19:47;19.07;95.04
63051;SHT30;49136;47.416;19.402;2023-07-30T01:22:15;19.12;95.52
63051;SHT30;49136;47.416;19.402;2023-07-30T01:24:40;19.10;95.58
63051;SHT30;49136;47.416;19.402;2023-07-30T01:27:07;19.12;95.61
63051;SHT30;49136;47.416;19.402;2023-07-30T01:29:43;19.12;95.65
63051;SHT30;49136;47.416;19.402;2023-07-30T01:32:11;19.12;95.53
63051;SHT30;49136;47.416;19.402;2023-07-30T01:34:37;19.12;96.11
63051;SHT30;49136;47.416;19.402;2023-07-30T01:37:09;19.09;96.20
63051;SHT30;49136;47.416;19.402;2023-07-30T01:39:36;19.07;95.01
63051;SHT30;49136;47.416;19.402;2023-07-30T01:42:03;19.09;96.05
63051;SHT30;49136;47.416;19.402;2023-07-30T01:44:29;19.05;96.94
63051;SHT30;49136;47.416;19.402;2023-07-30T01:46:54;19.07;96.24
63051;SHT30;49136;47.416;19.402;2023-07-30T01:49:20;19.07;95.36
63051;SHT30;49136;47.416;19.402;2023-07-30T01:51:45;19.12;95.89
63051;SHT30;49136;47.416;19.402;2023-07-30T01:54:11;19.12;95.53
63051;SHT30;49136;47.416;19.402;2023-07-30T01:56:36;19.20;95.59
63051;SHT30;49136;47.416;19.402;2023-07-30T01:59:02;19.20;95.07
63051;SHT30;49136;47.416;19.402;2023-07-30T02:01:27;19.24;94.74
63051;SHT30;49136;47.416;19.402;2023-07-30T02:03:53;19.26;94.93
63051;SHT30;49136;47.416;19.402;2023-07-30T02:06:18;19.28;95.29
63051;SHT30;49136;47.416;19.402;2023-07-30T02:08:43;19.35;94.92
63051;SHT30;49136;47.416;19.402;2023-07-30T02:11:09;19.31;94.83
63051;SHT30;49136;47.416;19.402;2023-07-30T02:13:34;19.35;94.32
63051;SHT30;49136;47.416;19.402;2023-07-30T02:16:00;19.37;93.99
63051;SHT30;49136;47.416;19.402;2023-07-30T02:18:25;19.43;94.76
63051;SHT30;49136;47.416;19.402;2023-07-30T02:20:50;19.43;95.07
63051;SHT30;49136;47.416;19.402;2023-07-30T02:23:16;19.38;95.45
63051;SHT30;49136;47.416;19.402;2023-07-30T02:25:41;19.40;95.89
63051;SHT30;49136;47.416;19.402;2023-07-30T02:28:07;19.38;94.96
63051;SHT30;49136;47.416;19.402;2023-07-30T02:30:33;19.35;95.55
63051;SHT30;49136;47.416;19.402;2023-07-30T02:32:59;19.37;95.22
63051;SHT30;49136;47.416;19.402;2023-07-30T02:35:25;19.35;95.37
63051;SHT30;49136;47.416;19.402;2023-07-30T02:37:50;19.35;95.62
63051;SHT30;49136;47.416;19.402;2023-07-30T02:40:16;19.28;94.67
63051;SHT30;49136;47.416;19.402;2023-07-30T02:42:41;19.28;95.39
63051;SHT30;49136;47.416;19.402;2023-07-30T02:45:07;19.24;95.54
63051;SHT30;49136;47.416;19.402;2023-07-30T02:47:32;19.23;94.43
63051;SHT30;49136;47.416;19.402;2023-07-30T02:49:57;19.20;94.36
63051;SHT30;49136;47.416;19.402;2023-07-30T02:52:23;19.20;94.66
63051;SHT30;49136;47.416;19.402;2023-07-30T02:54:48;19.19;95.76
63051;SHT30;49136;47.416;19.402;2023-07-30T02:57:14;19.17;96.11
63051;SHT30;49136;47.416;19.402;2023-07-30T02:59:39;19.16;95.66
63051;SHT30;49136;47.416;19.402;2023-07-30T03:02:06;19.13;95.24
63051;SHT30;49136;47.416;19.402;2023-07-30T03:04:31;19.16;95.44
63051;SHT30;49136;47.416;19.402;2023-07-30T03:06:57;19.12;94.96
63051;SHT30;49136;47.416;19.402;2023-07-30T03:09:22;19.10;95.57
63051;SHT30;49136;47.416;19.402;2023-07-30T03:11:49;19.13;95.88
63051;SHT30;49136;47.416;19.402;2023-07-30T03:14:14;19.12;96.07
63051;SHT30;49136;47.416;19.402;2023-07-30T03:16:40;19.09;95.85
63051;SHT30;49136;47.416;19.402;2023-07-30T03:19:05;19.09;96.07
63051;SHT30;49136;47.416;19.402;2023-07-30T03:21:31;19.05;96.49
63051;SHT30;49136;47.416;19.402;2023-07-30T03:23:56;19.05;96.59
63051;SHT30;49136;47.416;19.402;2023-07-30T03:26:22;19.03;96.08
63051;SHT30;49136;47.416;19.402;2023-07-30T03:28:47;19.06;95.75
63051;SHT30;49136;47.416;19.402;2023-07-30T03:31:12;19.12;95.84
63051;SHT30;49136;47.416;19.402;2023-07-30T03:33:38;19.13;95.81
63051;SHT30;49136;47.416;19.402;2023-07-30T03:36:04;19.20;95.29
63051;SHT30;49136;47.416;19.402;2023-07-30T03:38:30;19.27;95.97
63051;SHT30;49136;47.416;19.402;2023-07-30T03:40:55;19.31;95.57
63051;SHT30;49136;47.416;19.402;2023-07-30T03:43:21;19.34;95.13
63051;SHT30;49136;47.416;19.402;2023-07-30T03:45:46;19.38;95.33
63051;SHT30;49136;47.416;19.402;2023-07-30T03:48:13;19.43;95.25
63051;SHT30;49136;47.416;19.402;2023-07-30T03:50:39;19.47;95.26
63051;SHT30;49136;47.416;19.402;2023-07-30T03:53:04;19.51;95.15
63051;SHT30;49136;47.416;19.402;2023-07-30T03:55:30;19.50;95.23
63051;SHT30;49136;47.416;19.402;2023-07-30T03:57:55;19.53;95.36
63051;SHT30;49136;47.416;19.402;2023-07-30T04:00:21;19.54;95.85
63051;SHT30;49136;47.416;19.402;2023-07-30T04:02:46;19.55;95.68
63051;SHT30;49136;47.416;19.402;2023-07-30T04:05:12;19.59;94.71
63051;SHT30;49136;47.416;19.402;2023-07-30T04:07:37;19.62;95.51
63051;SHT30;49136;47.416;19.402;2023-07-30T04:10:03;19.71;93.56
63051;SHT30;49136;47.416;19.402;2023-07-30T04:12:28;19.78;93.86
63051;SHT30;49136;47.416;19.402;2023-07-30T04:14:53;19.83;93.24
63051;SHT30;49136;47.416;19.402;2023-07-30T04:17:19;19.87;92.69
63051;SHT30;49136;47.416;19.402;2023-07-30T04:19:44;19.96;93.03
63051;SHT30;49136;47.416;19.402;2023-07-30T04:22:10;20.01;93.96
63051;SHT30;49136;47.416;19.402;2023-07-30T04:24:35;20.09;94.69
63051;SHT30;49136;47.416;19.402;2023-07-30T04:27:01;20.10;92.09
63051;SHT30;49136;47.416;19.402;2023-07-30T04:29:26;20.24;92.72
63051;SHT30;49136;47.416;19.402;2023-07-30T04:31:51;20.33;91.70
63051;SHT30;49136;47.416;19.402;2023-07-30T04:34:17;20.41;91.74
63051;SHT30;49136;47.416;19.402;2023-07-30T04:36:42;20.40;91.76
63051;SHT30;49136;47.416;19.402;2023-07-30T04:39:08;20.45;92.53
63051;SHT30;49136;47.416;19.402;2023-07-30T04:41:33;20.52;92.20
63051;SHT30;49136;47.416;19.402;2023-07-30T04:43:59;20.58;93.17
63051;SHT30;49136;47.416;19.402;2023-07-30T04:46:24;20.66;91.63
63051;SHT30;49136;47.416;19.402;2023-07-30T04:48:51;20.72;91.76
63051;SHT30;49136;47.416;19.402;2023-07-30T04:51:16;20.75;91.71
63051;SHT30;49136;47.416;19.402;2023-07-30T04:53:41;20.83;90.89
63051;SHT30;49136;47.416;19.402;2023-07-30T04:56:07;20.92;90.78
63051;SHT30;49136;47.416;19.402;2023-07-30T04:58:32;21.04;89.96
63051;SHT30;49136;47.416;19.402;2023-07-30T05:00:58;21.17;89.46
63051;SHT30;49136;47.416;19.402;2023-07-30T05:03:23;21.30;88.69
63051;SHT30;49136;47.416;19.402;2023-07-30T05:05:48;21.53;88.07
63051;SHT30;49136;47.416;19.402;2023-07-30T05:08:14;21.76;87.44
63051;SHT30;49136;47.416;19.402;2023-07-30T05:10:40;21.97;87.50
63051;SHT30;49136;47.416;19.402;2023-07-30T05:13:05;22.11;87.88
63051;SHT30;49136;47.416;19.402;2023-07-30T05:15:30;22.08;86.91
63051;SHT30;49136;47.416;19.402;2023-07-30T05:17:56;22.15;86.90
63051;SHT30;49136;47.416;19.402;2023-07-30T05:20:21;22.18;86.12
63051;SHT30;49136;47.416;19.402;2023-07-30T05:22:47;22.17;85.67
63051;SHT30;49136;47.416;19.402;2023-07-30T05:25:12;22.12;85.90
63051;SHT30;49136;47.416;19.402;2023-07-30T05:27:37;22.17;85.58
63051;SHT30;49136;47.416;19.402;2023-07-30T05:30:03;22.24;85.81
63051;SHT30;49136;47.416;19.402;2023-07-30T05:32:29;22.36;85.04
63051;SHT30;49136;47.416;19.402;2023-07-30T05:34:54;22.36;85.69
63051;SHT30;49136;47.416;19.402;2023-07-30T05:37:19;22.51;84.55
63051;SHT30;49136;47.416;19.402;2023-07-30T05:39:45;22.63;84.15
63051;SHT30;49136;47.416;19.402;2023-07-30T05:42:10;22.60;84.37
63051;SHT30;49136;47.416;19.402;2023-07-30T05:44:36;22.69;83.78
63051;SHT30;49136;47.416;19.402;2023-07-30T05:47:01;22.79;83.47
63051;SHT30;49136;47.416;19.402;2023-07-30T05:49:26;22.86;83.53
63051;SHT30;49136;47.416;19.402;2023-07-30T05:51:52;22.88;83.20
63051;SHT30;49136;47.416;19.402;2023-07-30T05:54:17;22.79;83.34
63051;SHT30;49136;47.416;19.402;2023-07-30T05:56:43;22.84;83.01
63051;SHT30;49136;47.416;19.402;2023-07-30T05:59:08;22.88;83.21
63051;SHT30;49136;47.416;19.402;2023-07-30T06:01:34;22.87;84.51
63051;SHT30;49136;47.416;19.402;2023-07-30T06:03:59;22.84;83.60
63051;SHT30;49136;47.416;19.402;2023-07-30T06:06:25;22.83;84.80
63051;SHT30;49136;47.416;19.402;2023-07-30T06:08:54;22.84;84.42
63051;SHT30;49136;47.416;19.402;2023-07-30T06:11:20;22.79;85.44
63051;SHT30;49136;47.416;19.402;2023-07-30T06:13:45;22.77;84.72
63051;SHT30;49136;47.416;19.402;2023-07-30T06:16:10;22.94;85.18
63051;SHT30;49136;47.416;19.402;2023-07-30T06:18:36;22.97;84.11
63051;SHT30;49136;47.416;19.402;2023-07-30T06:21:01;23.19;83.55
63051;SHT30;49136;47.416;19.402;2023-07-30T06:23:27;23.30;81.97
63051;SHT30;49136;47.416;19.402;2023-07-30T06:25:52;23.45;81.84
63051;SHT30;49136;47.416;19.402;2023-07-30T06:28:18;23.53;80.34
63051;SHT30;49136;47.416;19.402;2023-07-30T06:30:43;23.67;81.05
63051;SHT30;49136;47.416;19.402;2023-07-30T06:33:09;23.82;81.03
63051;SHT30;49136;47.416;19.402;2023-07-30T06:35:34;24.00;80.25
63051;SHT30;49136;47.416;19.402;2023-07-30T06:38:00;24.21;80.79
63051;SHT30;49136;47.416;19.402;2023-07-30T06:40:25;24.35;78.54
63051;SHT30;49136;47.416;19.402;2023-07-30T06:42:51;24.47;79.55
63051;SHT30;49136;47.416;19.402;2023-07-30T06:45:17;24.68;78.34
63051;SHT30;49136;47.416;19.402;2023-07-30T06:47:42;24.70;76.95
63051;SHT30;49136;47.416;19.402;2023-07-30T06:50:07;24.84;77.54
63051;SHT30;49136;47.416;19.402;2023-07-30T06:52:36;25.05;77.47
63051;SHT30;49136;47.416;19.402;2023-07-30T06:55:02;25.25;78.48
63051;SHT30;49136;47.416;19.402;2023-07-30T06:57:29;25.39;76.51
63051;SHT30;49136;47.416;19.402;2023-07-30T06:59:54;25.58;76.78
63051;SHT30;49136;47.416;19.402;2023-07-30T07:02:20;25.73;77.46
63051;SHT30;49136;47.416;19.402;2023-07-30T07:04:45;25.70;75.59
63051;SHT30;49136;47.416;19.402;2023-07-30T07:07:11;25.95;74.31
63051;SHT30;49136;47.416;19.402;2023-07-30T07:09:36;26.01;74.18
63051;SHT30;49136;47.416;19.402;2023-07-30T07:12:02;26.48;74.30
63051;SHT30;49136;47.416;19.402;2023-07-30T07:14:28;26.84;72.09
63051;SHT30;49136;47.416;19.402;2023-07-30T07:16:54;27.59;71.38
63051;SHT30;49136;47.416;19.402;2023-07-30T07:19:21;27.54;71.31
63051;SHT30;49136;47.416;19.402;2023-07-30T07:21:46;27.58;71.17
63051;SHT30;49136;47.416;19.402;2023-07-30T07:24:12;27.44;69.88
63051;SHT30;49136;47.416;19.402;2023-07-30T07:26:37;27.33;70.35
63051;SHT30;49136;47.416;19.402;2023-07-30T07:29:03;27.11;70.54
63051;SHT30;49136;47.416;19.402;2023-07-30T07:31:28;26.96;71.17
63051;SHT30;49136;47.416;19.402;2023-07-30T07:33:54;26.85;72.18
63051;SHT30;49136;47.416;19.402;2023-07-30T07:36:19;26.76;71.57
63051;SHT30;49136;47.416;19.402;2023-07-30T07:38:45;26.74;71.63
63051;SHT30;49136;47.416;19.402;2023-07-30T07:41:15;26.71;71.41
63051;SHT30;49136;47.416;19.402;2023-07-30T07:43:41;26.82;71.78
63051;SHT30;49136;47.416;19.402;2023-07-30T07:46:07;26.84;71.90
63051;SHT30;49136;47.416;19.402;2023-07-30T07:48:38;26.62;70.60
63051;SHT30;49136;47.416;19.402;2023-07-30T07:51:04;26.32;72.10
63051;SHT30;49136;47.416;19.402;2023-07-30T07:53:29;25.84;73.24
63051;SHT30;49136;47.416;19.402;2023-07-30T07:55:55;25.41;75.42
63051;SHT30;49136;47.416;19.402;2023-07-30T07:58:20;25.33;74.69
63051;SHT30;49136;47.416;19.402;2023-07-30T08:00:45;25.14;75.41
63051;SHT30;49136;47.416;19.402;2023-07-30T08:03:11;25.14;75.62
63051;SHT30;49136;47.416;19.402;2023-07-30T08:05:36;25.11;76.29
63051;SHT30;49136;47.416;19.402;2023-07-30T08:08:02;25.05;76.44
63051;SHT30;49136;47.416;19.402;2023-07-30T08:10:27;24.95;78.12
63051;SHT30;49136;47.416;19.402;2023-07-30T08:12:53;24.80;78.71
63051;SHT30;49136;47.416;19.402;2023-07-30T08:15:18;24.52;80.60
63051;SHT30;49136;47.416;19.402;2023-07-30T08:17:43;24.36;79.55
63051;SHT30;49136;47.416;19.402;2023-07-30T08:20:09;24.55;80.67
63051;SHT30;49136;47.416;19.402;2023-07-30T08:22:35;24.57;79.72
63051;SHT30;49136;47.416;19.402;2023-07-30T08:25:01;24.43;80.68
63051;SHT30;49136;47.416;19.402;2023-07-30T08:27:27;24.50;80.48
63051;SHT30;49136;47.416;19.402;2023-07-30T08:29:52;24.43;81.55
63051;SHT30;49136;47.416;19.402;2023-07-30T08:32:17;24.52;80.93
63051;SHT30;49136;47.416;19.402;2023-07-30T08:34:43;24.71;82.81
63051;SHT30;49136;47.416;19.402;2023-07-30T08:37:08;24.81;80.50
63051;SHT30;49136;47.416;19.402;2023-07-30T08:39:34;24.91;81.03
63051;SHT30;49136;47.416;19.402;2023-07-30T08:41:59;24.95;81.87
63051;SHT30;49136;47.416;19.402;2023-07-30T08:44:25;25.04;79.70
63051;SHT30;49136;47.416;19.402;2023-07-30T08:46:50;25.16;80.02
63051;SHT30;49136;47.416;19.402;2023-07-30T08:49:16;25.08;80.46
63051;SHT30;49136;47.416;19.402;2023-07-30T08:51:42;24.98;80.84
63051;SHT30;49136;47.416;19.402;2023-07-30T08:54:09;25.01;80.86
63051;SHT30;49136;47.416;19.402;2023-07-30T08:56:35;24.61;79.54
63051;SHT30;49136;47.416;19.402;2023-07-30T08:59:02;24.06;80.40
63051;SHT30;49136;47.416;19.402;2023-07-30T09:01:34;23.70;81.98
63051;SHT30;49136;47.416;19.402;2023-07-30T09:04:02;23.55;82.25
63051;SHT30;49136;47.416;19.402;2023-07-30T09:06:27;23.45;82.59
63051;SHT30;49136;47.416;19.402;2023-07-30T09:08:53;23.23;82.98
63051;SHT30;49136;47.416;19.402;2023-07-30T09:11:19;23.04;83.51
63051;SHT30;49136;47.416;19.402;2023-07-30T09:13:45;23.15;83.00
63051;SHT30;49136;47.416;19.402;2023-07-30T09:16:12;23.16;82.85
63051;SHT30;49136;47.416;19.402;2023-07-30T09:18:42;23.25;82.59
63051;SHT30;49136;47.416;19.402;2023-07-30T09:21:09;23.07;83.32
63051;SHT30;49136;47.416;19.402;2023-07-30T09:23:42;23.14;84.19
63051;SHT30;49136;47.416;19.402;2023-07-30T09:26:08;23.12;84.60
63051;SHT30;49136;47.416;19.402;2023-07-30T09:28:34;22.88;86.66
63051;SHT30;49136;47.416;19.402;2023-07-30T09:31:04;22.74;85.14
63051;SHT30;49136;47.416;19.402;2023-07-30T09:33:31;22.24;86.70
63051;SHT30;49136;47.416;19.402;2023-07-30T09:35:57;22.17;87.60
63051;SHT30;49136;47.416;19.402;2023-07-30T09:38:23;22.15;87.97
63051;SHT30;49136;47.416;19.402;2023-07-30T09:40:49;22.10;89.02
63051;SHT30;49136;47.416;19.402;2023-07-30T09:43:15;22.15;89.10
63051;SHT30;49136;47.416;19.402;2023-07-30T09:45:44;22.24;88.72
63051;SHT30;49136;47.416;19.402;2023-07-30T09:48:10;22.18;89.57
63051;SHT30;49136;47.416;19.402;2023-07-30T09:50:37;22.11;89.77
63051;SHT30;49136;47.416;19.402;2023-07-30T09:53:03;21.97;90.40
63051;SHT30;49136;47.416;19.402;2023-07-30T09:55:29;21.83;91.52
63051;SHT30;49136;47.416;19.402;2023-07-30T09:57:55;21.75;91.31
63051;SHT30;49136;47.416;19.402;2023-07-30T10:00:20;21.63;91.34
63051;SHT30;49136;47.416;19.402;2023-07-30T10:02:47;21.56;89.87
63051;SHT30;49136;47.416;19.402;2023-07-30T10:05:19;21.41;90.75
63051;SHT30;49136;47.416;19.402;2023-07-30T10:07:59;21.25;92.26
63051;SHT30;49136;47.416;19.402;2023-07-30T10:10:26;20.94;93.94
63051;SHT30;49136;47.416;19.402;2023-07-30T10:12:55;21.00;94.17
63051;SHT30;49136;47.416;19.402;2023-07-30T10:15:22;20.96;93.55
63051;SHT30;49136;47.416;19.402;2023-07-30T10:17:52;21.00;93.50
63051;SHT30;49136;47.416;19.402;2023-07-30T10:20:20;21.03;92.57
63051;SHT30;49136;47.416;19.402;2023-07-30T10:22:46;21.25;93.96
63051;SHT30;49136;47.416;19.402;2023-07-30T10:25:12;21.41;94.86
63051;SHT30;49136;47.416;19.402;2023-07-30T10:27:40;21.55;94.07
63051;SHT30;49136;47.416;19.402;2023-07-30T10:32:42;21.72;93.07
63051;SHT30;49136;47.416;19.402;2023-07-30T10:35:08;21.79;91.84
63051;SHT30;49136;47.416;19.402;2023-07-30T10:37:34;21.82;93.21
63051;SHT30;49136;47.416;19.402;2023-07-30T10:39:59;21.86;92.48
63051;SHT30;49136;47.416;19.402;2023-07-30T10:42:33;21.86;93.58
63051;SHT30;49136;47.416;19.402;2023-07-30T10:44:59;21.90;93.57
63051;SHT30;49136;47.416;19.402;2023-07-30T10:47:27;21.96;92.49
63051;SHT30;49136;47.416;19.402;2023-07-30T10:49:52;21.92;92.78
63051;SHT30;49136;47.416;19.402;2023-07-30T10:52:24;22.01;93.76
63051;SHT30;49136;47.416;19.402;2023-07-30T10:54:59;21.93;93.45
63051;SHT30;49136;47.416;19.402;2023-07-30T10:57:30;22.03;92.44
63051;SHT30;49136;47.416;19.402;2023-07-30T10:59:56;22.04;93.12
63051;SHT30;49136;47.416;19.402;2023-07-30T11:02:22;22.08;92.33
63051;SHT30;49136;47.416;19.402;2023-07-30T11:04:47;22.12;92.02
63051;SHT30;49136;47.416;19.402;2023-07-30T11:07:17;22.21;92.40
63051;SHT30;49136;47.416;19.402;2023-07-30T11:09:43;22.28;92.40
63051;SHT30;49136;47.416;19.402;2023-07-30T11:12:09;22.29;92.76
63051;SHT30;49136;47.416;19.402;2023-07-30T11:14:35;22.44;90.17
63051;SHT30;49136;47.416;19.402;2023-07-30T11:17:01;22.52;90.37
63051;SHT30;49136;47.416;19.402;2023-07-30T11:19:28;22.81;89.91
63051;SHT30;49136;47.416;19.402;2023-07-30T11:21:55;23.10;92.31
63051;SHT30;49136;47.416;19.402;2023-07-30T11:24:21;23.23;90.62
63051;SHT30;49136;47.416;19.402;2023-07-30T11:27:00;23.57;89.89
63051;SHT30;49136;47.416;19.402;2023-07-30T11:29:26;23.74;88.36
63051;SHT30;49136;47.416;19.402;2023-07-30T11:31:56;23.52;87.20
63051;SHT30;49136;47.416;19.402;2023-07-30T11:34:22;23.69;88.56
63051;SHT30;49136;47.416;19.402;2023-07-30T11:36:47;23.71;89.01
63051;SHT30;49136;47.416;19.402;2023-07-30T11:39:13;23.62;87.78
63051;SHT30;49136;47.416;19.402;2023-07-30T11:41:39;23.57;88.74
63051;SHT30;49136;47.416;19.402;2023-07-30T11:44:05;23.50;89.03
63051;SHT30;49136;47.416;19.402;2023-07-30T11:46:30;23.50;86.82
63051;SHT30;49136;47.416;19.402;2023-07-30T11:49:15;23.50;89.55
63051;SHT30;49136;47.416;19.402;2023-07-30T11:51:46;23.59;88.52
63051;SHT30;49136;47.416;19.402;2023-07-30T11:54:21;23.60;89.45
63051;SHT30;49136;47.416;19.402;2023-07-30T11:56:46;23.62;87.32
63051;SHT30;49136;47.416;19.402;2023-07-30T11:59:12;23.62;88.50
63051;SHT30;49136;47.416;19.402;2023-07-30T12:01:37;23.49;86.44
63051;SHT30;49136;47.416;19.402;2023-07-30T12:04:04;23.47;87.78
63051;SHT30;49136;47.416;19.402;2023-07-30T12:09:15;23.55;88.98
63051;SHT30;49136;47.416;19.402;2023-07-30T12:12:01;23.53;89.12
63051;SHT30;49136;47.416;19.402;2023-07-30T12:14:28;23.35;88.26
63051;SHT30;49136;47.416;19.402;2023-07-30T12:16:59;23.28;90.32
63051;SHT30;49136;47.416;19.402;2023-07-30T12:19:25;23.32;89.97
63051;SHT30;49136;47.416;19.402;2023-07-30T12:21:51;23.11;88.73
63051;SHT30;49136;47.416;19.402;2023-07-30T12:24:16;23.16;89.86
63051;SHT30;49136;47.416;19.402;2023-07-30T12:26:41;23.08;89.25
63051;SHT30;49136;47.416;19.402;2023-07-30T12:29:07;22.80;89.81
63051;SHT30;49136;47.416;19.402;2023-07-30T12:31:32;22.79;89.56
63051;SHT30;49136;47.416;19.402;2023-07-30T12:33:58;22.64;89.90
63051;SHT30;49136;47.416;19.402;2023-07-30T12:36:23;22.56;90.26
63051;SHT30;49136;47.416;19.402;2023-07-30T12:38:49;22.48;90.29
63051;SHT30;49136;47.416;19.402;2023-07-30T12:41:17;22.27;89.54
63051;SHT30;49136;47.416;19.402;2023-07-30T12:43:44;22.44;91.07
63051;SHT30;49136;47.416;19.402;2023-07-30T12:46:09;22.44;91.50
63051;SHT30;49136;47.416;19.402;2023-07-30T12:48:34;22.44;91.83
63051;SHT30;49136;47.416;19.402;2023-07-30T12:51:00;22.57;90.77
63051;SHT30;49136;47.416;19.402;2023-07-30T12:53:25;22.67;91.47
63051;SHT30;49136;47.416;19.402;2023-07-30T12:55:51;22.81;90.74
63051;SHT30;49136;47.416;19.402;2023-07-30T12:58:18;23.19;90.33
63051;SHT30;49136;47.416;19.402;2023-07-30T13:00:44;23.36;87.73
63051;SHT30;49136;47.416;19.402;2023-07-30T13:03:09;23.71;88.82
63051;SHT30;49136;47.416;19.402;2023-07-30T13:05:35;23.67;88.53
63051;SHT30;49136;47.416;19.402;2023-07-30T13:08:01;23.93;87.39
63051;SHT30;49136;47.416;19.402;2023-07-30T13:10:26;24.21;86.26
63051;SHT30;49136;47.416;19.402;2023-07-30T13:12:52;24.40;86.43
63051;SHT30;49136;47.416;19.402;2023-07-30T13:15:18;24.59;84.33
63051;SHT30;49136;47.416;19.402;2023-07-30T13:17:44;25.30;84.60
63051;SHT30;49136;47.416;19.402;2023-07-30T13:20:10;25.47;83.03
63051;SHT30;49136;47.416;19.402;2023-07-30T13:22:35;24.55;82.65
63051;SHT30;49136;47.416;19.402;2023-07-30T13:25:01;24.80;83.71
63051;SHT30;49136;47.416;19.402;2023-07-30T13:27:27;24.52;83.07
63051;SHT30;49136;47.416;19.402;2023-07-30T13:29:53;24.61;84.26
63051;SHT30;49136;47.416;19.402;2023-07-30T13:32:19;24.56;84.00
63051;SHT30;49136;47.416;19.402;2023-07-30T13:34:44;25.08;82.43
63051;SHT30;49136;47.416;19.402;2023-07-30T13:37:10;25.32;81.08
63051;SHT30;49136;47.416;19.402;2023-07-30T13:39:36;25.88;81.63
63051;SHT30;49136;47.416;19.402;2023-07-30T13:42:02;25.85;79.47
63051;SHT30;49136;47.416;19.402;2023-07-30T13:44:27;26.10;80.96
63051;SHT30;49136;47.416;19.402;2023-07-30T13:46:54;26.69;79.96
63051;SHT30;49136;47.416;19.402;2023-07-30T13:49:20;26.99;76.13
63051;SHT30;49136;47.416;19.402;2023-07-30T13:51:46;27.62;77.98
63051;SHT30;49136;47.416;19.402;2023-07-30T13:54:13;28.17;77.23
63051;SHT30;49136;47.416;19.402;2023-07-30T13:56:39;28.11;73.46
63051;SHT30;49136;47.416;19.402;2023-07-30T13:59:05;27.81;74.58
63051;SHT30;49136;47.416;19.402;2023-07-30T14:01:32;27.17;73.49
63051;SHT30;49136;47.416;19.402;2023-07-30T14:03:58;27.34;74.31
63051;SHT30;49136;47.416;19.402;2023-07-30T14:06:24;27.52;75.69
63051;SHT30;49136;47.416;19.402;2023-07-30T14:08:50;27.68;73.67
63051;SHT30;49136;47.416;19.402;2023-07-30T14:11:15;27.30;72.91
63051;SHT30;49136;47.416;19.402;2023-07-30T14:13:41;26.62;73.05
63051;SHT30;49136;47.416;19.402;2023-07-30T14:16:07;27.07;74.41
63051;SHT30;49136;47.416;19.402;2023-07-30T14:18:33;27.09;76.80
63051;SHT30;49136;47.416;19.402;2023-07-30T14:20:59;27.07;75.04
63051;SHT30;49136;47.416;19.402;2023-07-30T14:23:25;26.71;76.59
63051;SHT30;49136;47.416;19.402;2023-07-30T14:25:51;26.50;74.27
63051;SHT30;49136;47.416;19.402;2023-07-30T14:28:17;26.62;75.51
63051;SHT30;49136;47.416;19.402;2023-07-30T14:30:42;26.12;73.99
63051;SHT30;49136;47.416;19.402;2023-07-30T14:33:10;25.99;74.97
63051;SHT30;49136;47.416;19.402;2023-07-30T14:35:36;25.70;76.97
63051;SHT30;49136;47.416;19.402;2023-07-30T14:38:04;25.96;75.07
63051;SHT30;49136;47.416;19.402;2023-07-30T14:40:30;26.20;77.18
63051;SHT30;49136;47.416;19.402;2023-07-30T14:42:56;26.39;75.95
63051;SHT30;49136;47.416;19.402;2023-07-30T14:45:21;26.25;75.40
63051;SHT30;49136;47.416;19.402;2023-07-30T14:47:47;26.57;75.66
63051;SHT30;49136;47.416;19.402;2023-07-30T14:50:13;26.98;72.04
63051;SHT30;49136;47.416;19.402;2023-07-30T14:52:39;27.09;72.38
63051;SHT30;49136;47.416;19.402;2023-07-30T14:55:04;26.85;74.01
63051;SHT30;49136;47.416;19.402;2023-07-30T14:57:30;26.88;73.64
63051;SHT30;49136;47.416;19.402;2023-07-30T14:59:56;27.07;72.52
63051;SHT30;49136;47.416;19.402;2023-07-30T15:02:21;27.14;72.01
63051;SHT30;49136;47.416;19.402;2023-07-30T15:04:47;26.95;74.24
63051;SHT30;49136;47.416;19.402;2023-07-30T15:07:13;26.48;75.51
63051;SHT30;49136;47.416;19.402;2023-07-30T15:09:39;26.58;73.65
63051;SHT30;49136;47.416;19.402;2023-07-30T15:12:05;26.55;74.38
63051;SHT30;49136;47.416;19.402;2023-07-30T15:14:32;26.52;74.53